sensor_id;sensor_type;location;lat;lon;timestamp;pressure;altitude;pressure_sealevel;temperature;humidity
9740;BME280;4909;42.680;26.324;2023-07-16T00:02:00;98828.91;;;26.27;56.86
9740;BME280;4909;42.680;26.324;2023-07-16T00:04:27;98827.53;;;26.23;56.61
9740;BME280;4909;42.680;26.324;2023-07-16T00:06:54;98829.06;;;26.25;57.57
9740;BME280;4909;42.680;26.324;2023-07-16T00:09:21;98829.44;;;26.30;57.22
9740;BME280;4909;42.680;26.324;2023-07-16T00:11:47;98819.28;;;26.41;57.79
9740;BME280;4909;42.680;26.324;2023-07-16T00:14:14;98823.25;;;26.54;57.64
9740;BME280;4909;42.680;26.324;2023-07-16T00:16:41;98822.22;;;26.47;58.45
9740;BME280;4909;42.680;26.324;2023-07-16T00:19:10;98825.06;;;26.37;58.53
9740;BME280;4909;42.680;26.324;2023-07-16T00:21:37;98822.94;;;26.23;59.48
9740;BME280;4909;42.680;26.324;2023-07-16T00:24:04;98825.09;;;26.46;58.59
9740;BME280;4909;42.680;26.324;2023-07-16T00:26:31;98817.56;;;26.39;58.67
9740;BME280;4909;42.680;26.324;2023-07-16T00:28:58;98825.84;;;26.30;59.41
9740;BME280;4909;42.680;26.324;2023-07-16T00:31:25;98820.63;;;26.11;59.45
9740;BME280;4909;42.680;26.324;2023-07-16T00:33:51;98820.63;;;26.11;60.32
9740;BME280;4909;42.680;26.324;2023-07-16T00:36:20;98816.19;;;26.10;60.13
9740;BME280;4909;42.680;26.324;2023-07-16T00:38:46;98816.81;;;26.21;59.08
9740;BME280;4909;42.680;26.324;2023-07-16T00:41:13;98814.13;;;26.29;58.64
9740;BME280;4909;42.680;26.324;2023-07-16T00:43:40;98811.22;;;26.23;59.22
9740;BME280;4909;42.680;26.324;2023-07-16T00:46:07;98801.69;;;26.27;59.27
9740;BME280;4909;42.680;26.324;2023-07-16T00:48:35;98805.88;;;26.13;59.60
9740;BME280;4909;42.680;26.324;2023-07-16T00:51:02;98784.34;;;25.94;59.81
9740;BME280;4909;42.680;26.324;2023-07-16T00:53:32;98805.03;;;26.21;58.76
9740;BME280;4909;42.680;26.324;2023-07-16T00:55:59;98808.25;;;26.16;58.55
9740;BME280;4909;42.680;26.324;2023-07-16T00:58:26;98768.13;;;25.84;59.72
9740;BME280;4909;42.680;26.324;2023-07-16T01:00:52;98793.53;;;26.01;59.91
9740;BME280;4909;42.680;26.324;2023-07-16T01:03:19;98795.91;;;26.22;58.86
9740;BME280;4909;42.680;26.324;2023-07-16T01:05:50;98790.81;;;26.27;58.79
9740;BME280;4909;42.680;26.324;2023-07-16T01:08:27;98773.88;;;26.15;58.66
9740;BME280;4909;42.680;26.324;2023-07-16T01:10:58;98783.81;;;26.24;58.59
9740;BME280;4909;42.680;26.324;2023-07-16T01:13:26;98788.19;;;26.17;59.18
9740;BME280;4909;42.680;26.324;2023-07-16T01:15:53;98784.38;;;26.02;59.74
9740;BME280;4909;42.680;26.324;2023-07-16T01:18:20;98779.31;;;25.81;60.18
9740;BME280;4909;42.680;26.324;2023-07-16T01:20:47;98787.84;;;25.86;60.97
9740;BME280;4909;42.680;26.324;2023-07-16T01:23:45;98782.75;;;25.83;60.79
9740;BME280;4909;42.680;26.324;2023-07-16T01:26:32;98777.97;;;25.85;60.80
9740;BME280;4909;42.680;26.324;2023-07-16T01:29:16;98771.97;;;26.00;60.03
9740;BME280;4909;42.680;26.324;2023-07-16T01:31:46;98778.59;;;26.05;60.86
9740;BME280;4909;42.680;26.324;2023-07-16T01:34:13;98779.63;;;26.04;59.92
9740;BME280;4909;42.680;26.324;2023-07-16T01:36:41;98773.97;;;25.98;60.27
9740;BME280;4909;42.680;26.324;2023-07-16T01:39:08;98780.69;;;26.11;59.33
9740;BME280;4909;42.680;26.324;2023-07-16T01:41:35;98774.50;;;26.01;60.36
9740;BME280;4909;42.680;26.324;2023-07-16T01:44:02;98778.22;;;26.00;59.89
9740;BME280;4909;42.680;26.324;2023-07-16T01:46:30;98781.91;;;25.91;60.55
9740;BME280;4909;42.680;26.324;2023-07-16T01:48:57;98780.31;;;25.80;60.96
9740;BME280;4909;42.680;26.324;2023-07-16T01:51:24;98784.44;;;25.84;60.39
9740;BME280;4909;42.680;26.324;2023-07-16T01:53:50;98785.84;;;25.88;60.16
9740;BME280;4909;42.680;26.324;2023-07-16T01:56:17;98780.63;;;26.03;60.04
9740;BME280;4909;42.680;26.324;2023-07-16T01:58:44;98778.94;;;26.02;61.00
9740;BME280;4909;42.680;26.324;2023-07-16T02:01:11;98784.41;;;26.10;60.49
9740;BME280;4909;42.680;26.324;2023-07-16T02:03:39;98783.41;;;26.19;59.73
9740;BME280;4909;42.680;26.324;2023-07-16T02:06:06;98790.19;;;26.07;59.71
9740;BME280;4909;42.680;26.324;2023-07-16T02:08:33;98781.13;;;25.99;60.57
9740;BME280;4909;42.680;26.324;2023-07-16T02:11:00;98778.22;;;26.00;60.55
9740;BME280;4909;42.680;26.324;2023-07-16T02:13:27;98783.00;;;25.98;59.83
9740;BME280;4909;42.680;26.324;2023-07-16T02:15:54;98786.69;;;25.89;60.65
9740;BME280;4909;42.680;26.324;2023-07-16T02:18:20;98782.97;;;25.90;61.10
9740;BME280;4909;42.680;26.324;2023-07-16T02:20:49;98788.91;;;25.93;60.88
9740;BME280;4909;42.680;26.324;2023-07-16T02:23:15;98780.25;;;25.90;60.70
9740;BME280;4909;42.680;26.324;2023-07-16T02:25:42;98788.19;;;25.83;60.66
9740;BME280;4909;42.680;26.324;2023-07-16T02:28:09;98788.19;;;25.83;61.36
9740;BME280;4909;42.680;26.324;2023-07-16T02:30:36;98783.28;;;25.95;61.19
9740;BME280;4909;42.680;26.324;2023-07-16T02:33:02;98778.19;;;25.92;61.26
9740;BME280;4909;42.680;26.324;2023-07-16T02:35:29;98769.50;;;25.88;60.82
9740;BME280;4909;42.680;26.324;2023-07-16T02:37:57;98779.06;;;25.92;60.44
9740;BME280;4909;42.680;26.324;2023-07-16T02:40:24;98785.72;;;25.98;61.71
9740;BME280;4909;42.680;26.324;2023-07-16T02:42:51;98780.28;;;25.98;60.67
9740;BME280;4909;42.680;26.324;2023-07-16T02:45:18;98784.84;;;25.98;61.02
9740;BME280;4909;42.680;26.324;2023-07-16T02:47:44;98782.28;;;25.96;61.18
9740;BME280;4909;42.680;26.324;2023-07-16T02:50:11;98781.16;;;26.07;61.13
9740;BME280;4909;42.680;26.324;2023-07-16T02:52:38;98784.75;;;26.07;60.73
9740;BME280;4909;42.680;26.324;2023-07-16T02:55:07;98763.97;;;25.98;61.26
9740;BME280;4909;42.680;26.324;2023-07-16T02:57:34;98783.03;;;26.06;60.80
9740;BME280;4909;42.680;26.324;2023-07-16T03:00:00;98789.97;;;26.01;60.69
9740;BME280;4909;42.680;26.324;2023-07-16T03:02:27;98788.06;;;25.93;61.68
9740;BME280;4909;42.680;26.324;2023-07-16T03:04:54;98790.41;;;25.88;61.00
9740;BME280;4909;42.680;26.324;2023-07-16T03:07:21;98784.13;;;25.87;61.49
9740;BME280;4909;42.680;26.324;2023-07-16T03:09:47;98797.34;;;25.82;61.08
9740;BME280;4909;42.680;26.324;2023-07-16T03:12:15;98791.19;;;25.80;61.40
9740;BME280;4909;42.680;26.324;2023-07-16T03:14:43;98794.13;;;25.61;63.02
9740;BME280;4909;42.680;26.324;2023-07-16T03:17:10;98791.97;;;25.65;63.03
9740;BME280;4909;42.680;26.324;2023-07-16T03:19:36;98786.56;;;25.73;62.65
9740;BME280;4909;42.680;26.324;2023-07-16T03:22:04;98793.88;;;25.72;62.95
9740;BME280;4909;42.680;26.324;2023-07-16T03:24:49;98795.34;;;25.67;62.61
9740;BME280;4909;42.680;26.324;2023-07-16T03:27:17;98805.28;;;25.76;63.23
9740;BME280;4909;42.680;26.324;2023-07-16T03:29:44;98802.75;;;25.74;62.49
9740;BME280;4909;42.680;26.324;2023-07-16T03:32:10;98798.63;;;25.70;62.99
9740;BME280;4909;42.680;26.324;2023-07-16T03:34:37;98813.28;;;25.77;62.52
9740;BME280;4909;42.680;26.324;2023-07-16T03:37:04;98810.94;;;25.39;62.48
9740;BME280;4909;42.680;26.324;2023-07-16T03:39:31;98807.28;;;25.30;64.41
9740;BME280;4909;42.680;26.324;2023-07-16T03:41:58;98808.25;;;25.47;64.33
9740;BME280;4909;42.680;26.324;2023-07-16T03:44:26;98820.50;;;25.61;63.28
9740;BME280;4909;42.680;26.324;2023-07-16T03:46:52;98820.44;;;25.78;62.52
9740;BME280;4909;42.680;26.324;2023-07-16T03:49:19;98818.88;;;25.76;62.74
9740;BME280;4909;42.680;26.324;2023-07-16T03:51:46;98823.81;;;25.80;62.84
9740;BME280;4909;42.680;26.324;2023-07-16T03:54:13;98812.16;;;25.88;62.28
9740;BME280;4909;42.680;26.324;2023-07-16T03:56:40;98818.94;;;25.84;61.92
9740;BME280;4909;42.680;26.324;2023-07-16T03:59:06;98818.25;;;25.82;62.33
9740;BME280;4909;42.680;26.324;2023-07-16T04:01:35;98819.25;;;25.81;62.04
9740;BME280;4909;42.680;26.324;2023-07-16T04:04:01;98825.97;;;25.69;63.41
9740;BME280;4909;42.680;26.324;2023-07-16T04:06:28;98815.78;;;25.71;63.13
9740;BME280;4909;42.680;26.324;2023-07-16T04:08:55;98824.31;;;25.76;63.14
9740;BME280;4909;42.680;26.324;2023-07-16T04:11:22;98826.72;;;25.79;62.32
9740;BME280;4909;42.680;26.324;2023-07-16T04:13:48;98821.34;;;25.87;62.67
9740;BME280;4909;42.680;26.324;2023-07-16T04:16:15;98822.09;;;25.97;62.26
9740;BME280;4909;42.680;26.324;2023-07-16T04:18:43;98830.13;;;26.07;61.94
9740;BME280;4909;42.680;26.324;2023-07-16T04:21:10;98827.94;;;26.10;61.75
9740;BME280;4909;42.680;26.324;2023-07-16T04:23:37;98830.66;;;26.10;61.44
9740;BME280;4909;42.680;26.324;2023-07-16T04:26:03;98835.09;;;26.11;62.32
9740;BME280;4909;42.680;26.324;2023-07-16T04:28:30;98833.13;;;26.21;61.81
9740;BME280;4909;42.680;26.324;2023-07-16T04:30:57;98835.88;;;26.29;61.49
9740;BME280;4909;42.680;26.324;2023-07-16T04:33:24;98841.25;;;26.47;61.09
9740;BME280;4909;42.680;26.324;2023-07-16T04:35:52;98841.94;;;26.49;60.87
9740;BME280;4909;42.680;26.324;2023-07-16T04:38:18;98843.00;;;26.64;60.32
9740;BME280;4909;42.680;26.324;2023-07-16T04:40:45;98833.69;;;26.67;59.83
9740;BME280;4909;42.680;26.324;2023-07-16T04:43:12;98835.91;;;26.79;60.00
9740;BME280;4909;42.680;26.324;2023-07-16T04:45:39;98844.69;;;26.91;59.72
9740;BME280;4909;42.680;26.324;2023-07-16T04:48:05;98848.44;;;26.98;59.54
9740;BME280;4909;42.680;26.324;2023-07-16T04:50:32;98855.78;;;27.06;58.95
9740;BME280;4909;42.680;26.324;2023-07-16T04:53:00;98856.31;;;27.17;58.34
9740;BME280;4909;42.680;26.324;2023-07-16T04:55:27;98857.00;;;27.28;58.48
9740;BME280;4909;42.680;26.324;2023-07-16T04:57:54;98863.84;;;27.40;57.42
9740;BME280;4909;42.680;26.324;2023-07-16T05:00:22;98862.97;;;27.47;57.85
9740;BME280;4909;42.680;26.324;2023-07-16T05:02:49;98862.84;;;27.57;57.10
9740;BME280;4909;42.680;26.324;2023-07-16T05:05:15;98861.81;;;27.74;56.30
9740;BME280;4909;42.680;26.324;2023-07-16T05:07:42;98870.34;;;27.87;55.45
9740;BME280;4909;42.680;26.324;2023-07-16T05:10:11;98863.53;;;27.67;55.68
9740;BME280;4909;42.680;26.324;2023-07-16T05:12:38;98868.13;;;27.66;56.33
9740;BME280;4909;42.680;26.324;2023-07-16T05:15:05;98865.22;;;27.76;56.28
9740;BME280;4909;42.680;26.324;2023-07-16T05:17:32;98872.56;;;27.76;56.44
9740;BME280;4909;42.680;26.324;2023-07-16T05:19:59;98878.34;;;27.89;54.30
9740;BME280;4909;42.680;26.324;2023-07-16T05:22:26;98868.75;;;27.36;53.49
9740;BME280;4909;42.680;26.324;2023-07-16T05:24:53;98871.16;;;27.39;54.29
9740;BME280;4909;42.680;26.324;2023-07-16T05:27:21;98867.75;;;27.29;55.81
9740;BME280;4909;42.680;26.324;2023-07-16T05:29:48;98864.84;;;27.39;54.59
9740;BME280;4909;42.680;26.324;2023-07-16T05:32:14;98865.19;;;27.19;54.50
9740;BME280;4909;42.680;26.324;2023-07-16T05:34:41;98866.63;;;26.90;55.94
9740;BME280;4909;42.680;26.324;2023-07-16T05:37:08;98857.09;;;26.94;56.73
9740;BME280;4909;42.680;26.324;2023-07-16T05:39:35;98867.34;;;27.16;55.06
9740;BME280;4909;42.680;26.324;2023-07-16T05:42:02;98870.97;;;27.33;56.43
9740;BME280;4909;42.680;26.324;2023-07-16T05:44:30;98869.50;;;27.54;54.30
9740;BME280;4909;42.680;26.324;2023-07-16T05:46:56;98875.63;;;27.73;53.22
9740;BME280;4909;42.680;26.324;2023-07-16T05:49:24;98875.28;;;27.84;52.20
9740;BME280;4909;42.680;26.324;2023-07-16T05:51:51;98879.19;;;27.89;53.05
9740;BME280;4909;42.680;26.324;2023-07-16T05:54:18;98872.88;;;27.97;52.22
9740;BME280;4909;42.680;26.324;2023-07-16T05:56:44;98880.03;;;27.90;52.02
9740;BME280;4909;42.680;26.324;2023-07-16T05:59:11;98877.84;;;27.77;51.01
9740;BME280;4909;42.680;26.324;2023-07-16T06:01:39;98878.19;;;27.82;52.34
9740;BME280;4909;42.680;26.324;2023-07-16T06:04:06;98876.63;;;27.80;52.25
9740;BME280;4909;42.680;26.324;2023-07-16T06:06:33;98868.28;;;27.89;52.79
9740;BME280;4909;42.680;26.324;2023-07-16T06:09:00;98880.91;;;28.15;51.99
9740;BME280;4909;42.680;26.324;2023-07-16T06:11:26;98873.38;;;28.25;51.91
9740;BME280;4909;42.680;26.324;2023-07-16T06:13:54;98871.97;;;28.45;52.00
9740;BME280;4909;42.680;26.324;2023-07-16T06:16:21;98875.66;;;28.52;51.59
9740;BME280;4909;42.680;26.324;2023-07-16T06:18:49;98871.25;;;28.43;49.25
9740;BME280;4909;42.680;26.324;2023-07-16T06:21:16;98862.41;;;28.41;50.57
9740;BME280;4909;42.680;26.324;2023-07-16T06:23:42;98870.28;;;28.28;50.80
9740;BME280;4909;42.680;26.324;2023-07-16T06:26:09;98872.34;;;28.26;50.33
9740;BME280;4909;42.680;26.324;2023-07-16T06:28:36;98866.69;;;28.27;50.69
9740;BME280;4909;42.680;26.324;2023-07-16T06:31:03;98873.66;;;28.38;50.26
9740;BME280;4909;42.680;26.324;2023-07-16T06:33:29;98870.94;;;28.46;50.77
9740;BME280;4909;42.680;26.324;2023-07-16T06:35:58;98870.16;;;28.68;50.46
9740;BME280;4909;42.680;26.324;2023-07-16T06:38:24;98865.03;;;28.73;50.91
9740;BME280;4909;42.680;26.324;2023-07-16T06:40:52;98876.41;;;28.93;51.01
9740;BME280;4909;42.680;26.324;2023-07-16T06:43:19;98870.75;;;28.94;50.23
9740;BME280;4909;42.680;26.324;2023-07-16T06:45:46;98876.13;;;29.11;49.92
9740;BME280;4909;42.680;26.324;2023-07-16T06:48:12;98869.31;;;29.07;49.24
9740;BME280;4909;42.680;26.324;2023-07-16T06:50:39;98878.91;;;29.03;49.31
9740;BME280;4909;42.680;26.324;2023-07-16T06:53:07;98878.97;;;28.94;49.27
9740;BME280;4909;42.680;26.324;2023-07-16T06:55:34;98879.22;;;29.08;49.92
9740;BME280;4909;42.680;26.324;2023-07-16T06:58:01;98881.13;;;29.38;48.40
9740;BME280;4909;42.680;26.324;2023-07-16T07:00:28;98858.13;;;29.47;48.63
9740;BME280;4909;42.680;26.324;2023-07-16T07:02:55;98871.00;;;29.61;47.74
9740;BME280;4909;42.680;26.324;2023-07-16T07:05:22;98862.25;;;29.66;47.59
9740;BME280;4909;42.680;26.324;2023-07-16T07:07:49;98866.91;;;29.80;47.49
9740;BME280;4909;42.680;26.324;2023-07-16T07:10:17;98867.78;;;29.80;45.13
9740;BME280;4909;42.680;26.324;2023-07-16T07:12:44;98873.88;;;29.91;43.42
9740;BME280;4909;42.680;26.324;2023-07-16T07:15:11;98822.56;;;29.70;43.17
9740;BME280;4909;42.680;26.324;2023-07-16T07:17:38;98864.09;;;30.11;44.00
9740;BME280;4909;42.680;26.324;2023-07-16T07:20:06;98857.13;;;30.23;42.70
9740;BME280;4909;42.680;26.324;2023-07-16T07:22:33;98864.78;;;30.42;41.54
9740;BME280;4909;42.680;26.324;2023-07-16T07:25:00;98852.34;;;30.54;40.91
9740;BME280;4909;42.680;26.324;2023-07-16T07:27:29;98857.63;;;30.56;41.08
9740;BME280;4909;42.680;26.324;2023-07-16T07:29:55;98868.78;;;30.69;35.53
9740;BME280;4909;42.680;26.324;2023-07-16T07:32:22;98863.75;;;30.73;36.25
9740;BME280;4909;42.680;26.324;2023-07-16T07:34:49;98857.53;;;30.64;36.09
9740;BME280;4909;42.680;26.324;2023-07-16T07:37:16;98856.25;;;30.22;37.79
9740;BME280;4909;42.680;26.324;2023-07-16T07:39:43;98852.50;;;30.38;38.51
9740;BME280;4909;42.680;26.324;2023-07-16T07:42:13;98848.75;;;30.54;39.96
9740;BME280;4909;42.680;26.324;2023-07-16T07:44:41;98855.53;;;30.73;38.90
9740;BME280;4909;42.680;26.324;2023-07-16T07:47:07;98852.94;;;30.86;38.10
9740;BME280;4909;42.680;26.324;2023-07-16T07:49:34;98850.59;;;30.97;37.79
9740;BME280;4909;42.680;26.324;2023-07-16T07:52:01;98852.06;;;31.00;37.46
9740;BME280;4909;42.680;26.324;2023-07-16T07:54:28;98850.75;;;30.96;37.27
9740;BME280;4909;42.680;26.324;2023-07-16T07:56:55;98851.53;;;31.04;37.37
9740;BME280;4909;42.680;26.324;2023-07-16T07:59:21;98857.09;;;31.11;37.43
9740;BME280;4909;42.680;26.324;2023-07-16T08:01:49;98851.91;;;31.01;36.81
9740;BME280;4909;42.680;26.324;2023-07-16T08:04:16;98858.31;;;31.08;37.37
9740;BME280;4909;42.680;26.324;2023-07-16T08:06:43;98850.19;;;31.00;37.72
9740;BME280;4909;42.680;26.324;2023-07-16T08:09:10;98832.00;;;31.14;38.54
9740;BME280;4909;42.680;26.324;2023-07-16T08:11:36;98859.72;;;31.40;37.12
9740;BME280;4909;42.680;26.324;2023-07-16T08:14:03;98854.25;;;31.62;37.02
9740;BME280;4909;42.680;26.324;2023-07-16T08:16:30;98848.09;;;31.81;37.51
9740;BME280;4909;42.680;26.324;2023-07-16T08:18:58;98851.09;;;31.86;35.47
9740;BME280;4909;42.680;26.324;2023-07-16T08:21:25;98847.53;;;31.85;35.75
9740;BME280;4909;42.680;26.324;2023-07-16T08:23:52;98845.00;;;31.90;36.99
9740;BME280;4909;42.680;26.324;2023-07-16T08:26:18;98846.88;;;31.83;36.86
9740;BME280;4909;42.680;26.324;2023-07-16T08:28:45;98844.19;;;31.90;36.40
9740;BME280;4909;42.680;26.324;2023-07-16T08:31:12;98852.00;;;32.14;35.96
9740;BME280;4909;42.680;26.324;2023-07-16T08:33:39;98858.13;;;32.16;34.76
9740;BME280;4909;42.680;26.324;2023-07-16T08:36:09;98838.13;;;32.01;35.27
9740;BME280;4909;42.680;26.324;2023-07-16T08:38:36;98851.41;;;31.98;35.78
9740;BME280;4909;42.680;26.324;2023-07-16T08:41:03;98850.41;;;31.77;35.72
9740;BME280;4909;42.680;26.324;2023-07-16T08:43:30;98845.50;;;31.73;36.21
9740;BME280;4909;42.680;26.324;2023-07-16T08:46:01;98845.56;;;31.79;37.05
9740;BME280;4909;42.680;26.324;2023-07-16T08:48:28;98847.22;;;32.02;37.71
9740;BME280;4909;42.680;26.324;2023-07-16T08:50:55;98840.75;;;32.09;36.33
9740;BME280;4909;42.680;26.324;2023-07-16T08:53:25;98837.69;;;32.25;36.21
9740;BME280;4909;42.680;26.324;2023-07-16T08:55:52;98844.09;;;32.32;36.40
9740;BME280;4909;42.680;26.324;2023-07-16T08:58:19;98843.31;;;32.45;34.47
9740;BME280;4909;42.680;26.324;2023-07-16T09:00:49;98837.88;;;32.52;36.03
9740;BME280;4909;42.680;26.324;2023-07-16T09:03:16;98838.63;;;32.67;35.68
9740;BME280;4909;42.680;26.324;2023-07-16T09:05:44;98838.00;;;32.71;35.87
9740;BME280;4909;42.680;26.324;2023-07-16T09:08:11;98844.34;;;32.72;33.91
9740;BME280;4909;42.680;26.324;2023-07-16T09:10:40;98844.59;;;32.84;34.83
9740;BME280;4909;42.680;26.324;2023-07-16T09:13:07;98844.97;;;32.74;34.17
9740;BME280;4909;42.680;26.324;2023-07-16T09:15:33;98836.06;;;32.65;34.61
9740;BME280;4909;42.680;26.324;2023-07-16T09:18:00;98842.31;;;32.87;35.29
9740;BME280;4909;42.680;26.324;2023-07-16T09:20:27;98841.53;;;33.06;34.95
9740;BME280;4909;42.680;26.324;2023-07-16T09:22:56;98821.84;;;33.09;34.07
9740;BME280;4909;42.680;26.324;2023-07-16T09:25:26;98837.16;;;33.18;34.30
9740;BME280;4909;42.680;26.324;2023-07-16T09:27:55;98836.13;;;33.33;34.69
9740;BME280;4909;42.680;26.324;2023-07-16T09:30:21;98839.09;;;33.38;34.51
9740;BME280;4909;42.680;26.324;2023-07-16T09:32:48;98838.44;;;33.36;34.66
9740;BME280;4909;42.680;26.324;2023-07-16T09:35:16;98834.66;;;33.30;33.49
9740;BME280;4909;42.680;26.324;2023-07-16T09:37:43;98829.78;;;33.45;33.82
9740;BME280;4909;42.680;26.324;2023-07-16T09:40:12;98824.28;;;33.52;34.44
9740;BME280;4909;42.680;26.324;2023-07-16T09:42:40;98825.63;;;33.69;34.48
9740;BME280;4909;42.680;26.324;2023-07-16T09:45:17;98830.03;;;33.70;34.15
9740;BME280;4909;42.680;26.324;2023-07-16T09:47:44;98821.16;;;33.88;34.10
9740;BME280;4909;42.680;26.324;2023-07-16T09:50:11;98817.16;;;33.84;33.50
9740;BME280;4909;42.680;26.324;2023-07-16T09:52:38;98812.03;;;33.54;34.10
9740;BME280;4909;42.680;26.324;2023-07-16T09:55:08;98821.50;;;33.45;34.22
9740;BME280;4909;42.680;26.324;2023-07-16T09:57:38;98828.31;;;33.43;33.22
9740;BME280;4909;42.680;26.324;2023-07-16T10:00:06;98814.31;;;33.31;34.01
9740;BME280;4909;42.680;26.324;2023-07-16T10:02:38;98806.94;;;33.45;34.50
9740;BME280;4909;42.680;26.324;2023-07-16T10:05:13;98785.75;;;33.45;33.85
9740;BME280;4909;42.680;26.324;2023-07-16T10:07:40;98808.47;;;33.74;33.90
9740;BME280;4909;42.680;26.324;2023-07-16T10:10:08;98797.47;;;33.74;33.83
9740;BME280;4909;42.680;26.324;2023-07-16T10:12:36;98800.22;;;33.74;33.74
9740;BME280;4909;42.680;26.324;2023-07-16T10:15:04;98780.69;;;33.62;33.59
9740;BME280;4909;42.680;26.324;2023-07-16T10:17:32;98795.09;;;33.64;34.52
9740;BME280;4909;42.680;26.324;2023-07-16T10:20:02;98780.50;;;33.77;34.24
9740;BME280;4909;42.680;26.324;2023-07-16T10:22:34;98785.16;;;33.76;34.26
9740;BME280;4909;42.680;26.324;2023-07-16T10:25:03;98781.31;;;33.90;34.43
9740;BME280;4909;42.680;26.324;2023-07-16T10:27:31;98781.97;;;33.92;33.69
9740;BME280;4909;42.680;26.324;2023-07-16T10:29:58;98783.47;;;33.75;34.20
9740;BME280;4909;42.680;26.324;2023-07-16T10:32:27;98779.41;;;33.84;34.23
9740;BME280;4909;42.680;26.324;2023-07-16T10:34:55;98751.47;;;33.81;34.65
9740;BME280;4909;42.680;26.324;2023-07-16T10:37:24;98778.34;;;34.25;33.88
9740;BME280;4909;42.680;26.324;2023-07-16T10:39:52;98777.63;;;34.49;33.70
9740;BME280;4909;42.680;26.324;2023-07-16T10:42:19;98772.47;;;34.72;33.61
9740;BME280;4909;42.680;26.324;2023-07-16T10:44:49;98766.91;;;34.85;32.53
9740;BME280;4909;42.680;26.324;2023-07-16T10:47:21;98763.22;;;34.92;32.82
9740;BME280;4909;42.680;26.324;2023-07-16T10:49:48;98756.56;;;34.74;32.61
9740;BME280;4909;42.680;26.324;2023-07-16T10:52:17;98757.47;;;34.48;32.83
9740;BME280;4909;42.680;26.324;2023-07-16T10:54:46;98750.53;;;34.33;33.91
9740;BME280;4909;42.680;26.324;2023-07-16T10:57:12;98748.78;;;34.52;33.98
9740;BME280;4909;42.680;26.324;2023-07-16T10:59:41;98748.75;;;34.58;33.40
9740;BME280;4909;42.680;26.324;2023-07-16T11:02:12;98745.00;;;34.33;33.09
9740;BME280;4909;42.680;26.324;2023-07-16T11:04:39;98730.44;;;34.13;33.82
9740;BME280;4909;42.680;26.324;2023-07-16T11:07:07;98745.69;;;34.15;33.57
9740;BME280;4909;42.680;26.324;2023-07-16T11:09:40;98744.72;;;33.83;34.65
9740;BME280;4909;42.680;26.324;2023-07-16T11:12:11;98747.88;;;33.54;35.77
9740;BME280;4909;42.680;26.324;2023-07-16T11:14:38;98736.88;;;33.54;34.82
9740;BME280;4909;42.680;26.324;2023-07-16T11:17:06;98730.50;;;33.34;34.67
9740;BME280;4909;42.680;26.324;2023-07-16T11:19:34;98722.25;;;33.21;35.23
9740;BME280;4909;42.680;26.324;2023-07-16T11:22:03;98735.78;;;33.29;34.53
9740;BME280;4909;42.680;26.324;2023-07-16T11:24:36;98733.41;;;33.12;34.56
9740;BME280;4909;42.680;26.324;2023-07-16T11:27:04;98728.97;;;33.11;35.02
9740;BME280;4909;42.680;26.324;2023-07-16T11:29:35;98722.38;;;32.86;35.59
9740;BME280;4909;42.680;26.324;2023-07-16T11:32:03;98723.03;;;32.95;35.22
9740;BME280;4909;42.680;26.324;2023-07-16T11:34:29;98730.03;;;33.04;34.71
9740;BME280;4909;42.680;26.324;2023-07-16T11:37:07;98733.81;;;33.03;35.35
9740;BME280;4909;42.680;26.324;2023-07-16T11:39:34;98734.47;;;32.92;35.30
9740;BME280;4909;42.680;26.324;2023-07-16T11:42:02;98721.72;;;32.71;35.23
9740;BME280;4909;42.680;26.324;2023-07-16T11:44:32;98720.22;;;32.75;35.78
9740;BME280;4909;42.680;26.324;2023-07-16T11:47:01;98707.09;;;32.70;35.46
9740;BME280;4909;42.680;26.324;2023-07-16T11:49:28;98713.47;;;32.84;35.38
9740;BME280;4909;42.680;26.324;2023-07-16T11:51:54;98721.31;;;32.94;35.35
9740;BME280;4909;42.680;26.324;2023-07-16T11:54:21;98714.16;;;32.99;35.15
9740;BME280;4909;42.680;26.324;2023-07-16T11:56:48;98711.63;;;33.11;35.38
9740;BME280;4909;42.680;26.324;2023-07-16T11:59:15;98708.88;;;33.11;35.77
9740;BME280;4909;42.680;26.324;2023-07-16T12:01:46;98709.78;;;33.25;35.05
9740;BME280;4909;42.680;26.324;2023-07-16T12:04:15;98710.19;;;33.35;35.23
9740;BME280;4909;42.680;26.324;2023-07-16T12:06:42;98717.81;;;33.39;35.01
9740;BME280;4909;42.680;26.324;2023-07-16T12:09:08;98707.44;;;33.41;34.39
9740;BME280;4909;42.680;26.324;2023-07-16T12:11:35;98721.41;;;33.33;34.40
9740;BME280;4909;42.680;26.324;2023-07-16T12:14:03;98712.28;;;33.26;35.09
9740;BME280;4909;42.680;26.324;2023-07-16T12:16:30;98702.16;;;33.40;35.56
9740;BME280;4909;42.680;26.324;2023-07-16T12:18:57;98709.75;;;33.38;34.58
9740;BME280;4909;42.680;26.324;2023-07-16T12:21:25;98702.16;;;33.33;34.17
9740;BME280;4909;42.680;26.324;2023-07-16T12:23:52;98700.88;;;33.29;35.27
9740;BME280;4909;42.680;26.324;2023-07-16T12:26:19;98702.97;;;33.47;34.31
9740;BME280;4909;42.680;26.324;2023-07-16T12:28:45;98697.91;;;33.44;34.93
9740;BME280;4909;42.680;26.324;2023-07-16T12:31:12;98692.84;;;33.34;34.93
9740;BME280;4909;42.680;26.324;2023-07-16T12:33:39;98700.84;;;33.36;34.22
9740;BME280;4909;42.680;26.324;2023-07-16T12:36:06;98687.13;;;33.23;34.75
9740;BME280;4909;42.680;26.324;2023-07-16T12:38:34;98692.63;;;33.29;35.03
9740;BME280;4909;42.680;26.324;2023-07-16T12:41:00;98691.56;;;33.37;35.02
9740;BME280;4909;42.680;26.324;2023-07-16T12:43:28;98690.28;;;33.33;35.02
9740;BME280;4909;42.680;26.324;2023-07-16T12:45:57;98686.69;;;33.39;34.57
9740;BME280;4909;42.680;26.324;2023-07-16T12:48:24;98691.53;;;33.10;34.22
9740;BME280;4909;42.680;26.324;2023-07-16T12:50:51;98688.34;;;33.07;34.98
9740;BME280;4909;42.680;26.324;2023-07-16T12:53:18;98682.25;;;33.25;34.91
9740;BME280;4909;42.680;26.324;2023-07-16T12:55:46;98679.72;;;33.30;35.28
9740;BME280;4909;42.680;26.324;2023-07-16T12:58:13;98676.50;;;33.46;34.56
9740;BME280;4909;42.680;26.324;2023-07-16T13:00:39;98680.78;;;33.55;34.69
9740;BME280;4909;42.680;26.324;2023-07-16T13:03:06;98648.38;;;33.44;33.33
9740;BME280;4909;42.680;26.324;2023-07-16T13:05:36;98683.06;;;33.51;33.75
9740;BME280;4909;42.680;26.324;2023-07-16T13:08:04;98676.31;;;33.41;33.55
9740;BME280;4909;42.680;26.324;2023-07-16T13:10:30;98670.63;;;33.29;34.03
9740;BME280;4909;42.680;26.324;2023-07-16T13:12:59;98667.66;;;33.17;34.86